createdAt,value
2023-04-02T00:02:31.692Z,98576.56
2023-04-02T00:05:19.636Z,98574.56
2023-04-02T00:07:49.459Z,98576.25
2023-04-02T00:10:39.719Z,98574.39
2023-04-02T00:13:11.992Z,98579.73
2023-04-02T00:15:45.460Z,98583.36
2023-04-02T00:18:18.670Z,98583.80
2023-04-02T00:20:53.545Z,98583.39
2023-04-02T00:23:22.408Z,98586.00
2023-04-02T00:25:50.406Z,98589.84
2023-04-02T00:28:21.180Z,98592.04
2023-04-02T00:30:55.377Z,98594.11
2023-04-02T00:33:25.705Z,98595.81
2023-04-02T00:35:54.578Z,98594.29
2023-04-02T00:38:28.104Z,98595.64
2023-04-02T00:40:58.644Z,98596.02
2023-04-02T00:43:28.239Z,98592.26
2023-04-02T00:45:58.581Z,98592.36
2023-04-02T00:48:32.757Z,98598.17
2023-04-02T00:51:08.313Z,98598.75
2023-04-02T00:53:36.531Z,98598.05
2023-04-02T00:56:05.993Z,98599.45
2023-04-02T00:58:36.819Z,98599.75
2023-04-02T01:01:16.759Z,98602.52
2023-04-02T01:03:58.344Z,98602.52
2023-04-02T01:06:30.768Z,98604.83
2023-04-02T01:09:05.810Z,98606.22
2023-04-02T01:12:04.789Z,98606.83
2023-04-02T01:15:25.044Z,98603.63
2023-04-02T01:18:18.819Z,98604.56
2023-04-02T01:21:08.873Z,98605.27
2023-04-02T01:24:02.013Z,98602.90
2023-04-02T01:26:46.015Z,98605.27
2023-04-02T01:29:33.466Z,98604.81
2023-04-02T01:32:04.164Z,98605.59
2023-04-02T01:34:33.268Z,98607.48
2023-04-02T01:37:22.949Z,98606.47
2023-04-02T01:40:06.951Z,98605.25
2023-04-02T01:42:49.269Z,98609.52
2023-04-02T01:45:19.746Z,98614.19
2023-04-02T01:47:49.298Z,98612.84
2023-04-02T01:50:20.509Z,98608.29
2023-04-02T01:52:51.069Z,98613.19
2023-04-02T01:55:46.144Z,98612.84
2023-04-02T01:58:18.099Z,98609.41
2023-04-02T02:00:52.180Z,98605.70
2023-04-02T02:03:22.004Z,98609.60
2023-04-02T02:05:50.913Z,98604.73
2023-04-02T02:08:38.553Z,98612.27
2023-04-02T02:11:12.387Z,98611.87
2023-04-02T02:13:42.174Z,98610.58
2023-04-02T02:16:12.825Z,98610.68
2023-04-02T02:18:43.462Z,98609.04
2023-04-02T02:21:13.248Z,98604.90
2023-04-02T02:23:41.933Z,98609.96
2023-04-02T02:26:10.924Z,98605.11
2023-04-02T02:28:41.517Z,98606.23
2023-04-02T02:31:22.882Z,98606.64
2023-04-02T02:33:53.244Z,98605.73
2023-04-02T02:36:28.228Z,98604.53
2023-04-02T02:38:58.598Z,98603.84
2023-04-02T02:41:38.356Z,98604.85
2023-04-02T02:44:16.432Z,98607.24
2023-04-02T02:46:51.915Z,98612.45
2023-04-02T02:49:29.091Z,98610.80
2023-04-02T02:52:04.153Z,98610.97
2023-04-02T02:54:40.653Z,98611.70
2023-04-02T02:57:12.063Z,98614.02
2023-04-02T02:59:40.621Z,98615.50
2023-04-02T03:02:11.223Z,98620.30
2023-04-02T03:04:39.870Z,98618.95
2023-04-02T03:07:12.139Z,98625.13
2023-04-02T03:09:47.420Z,98624.05
2023-04-02T03:12:28.603Z,98625.52
2023-04-02T03:15:24.918Z,98628.31
2023-04-02T03:20:06.391Z,98629.63
2023-04-02T03:22:44.329Z,98632.25
2023-04-02T03:25:25.437Z,98632.58
2023-04-02T03:27:58.496Z,98633.60
2023-04-02T03:30:34.239Z,98634.63
2023-04-02T03:33:06.434Z,98637.78
2023-04-02T03:35:44.037Z,98640.20
2023-04-02T03:38:18.430Z,98641.64
2023-04-02T03:40:58.794Z,98638.98
2023-04-02T03:43:47.043Z,98640.61
2023-04-02T03:46:36.759Z,98646.73
2023-04-02T03:49:13.931Z,98644.85
2023-04-02T03:52:02.603Z,98648.83
2023-04-02T03:54:31.514Z,98656.92
2023-04-02T03:57:00.125Z,98653.47
2023-04-02T03:59:50.887Z,98658.17
2023-04-02T04:02:33.465Z,98657.74
2023-04-02T04:05:03.079Z,98654.90
2023-04-02T04:07:39.637Z,98661.13
2023-04-02T04:10:08.120Z,98658.04
2023-04-02T04:12:40.635Z,98660.55
2023-04-02T04:15:15.088Z,98658.23
2023-04-02T04:18:10.605Z,98664.58
2023-04-02T04:20:58.278Z,98660.37
2023-04-02T04:23:36.061Z,98669.17
2023-04-02T04:26:24.850Z,98672.43
2023-04-02T04:28:59.906Z,98672.58
2023-04-02T04:31:34.061Z,98674.14
2023-04-02T04:34:16.512Z,98677.00
2023-04-02T04:36:54.257Z,98676.42
2023-04-02T04:39:58.913Z,98679.53
2023-04-02T04:42:29.513Z,98685.30
2023-04-02T04:45:02.784Z,98682.83
2023-04-02T04:48:01.916Z,98685.04
2023-04-02T04:50:37.905Z,98687.45
2023-04-02T04:53:07.690Z,98689.04
2023-04-02T04:55:40.562Z,98688.02
2023-04-02T04:58:22.932Z,98688.74
2023-04-02T05:01:07.784Z,98690.11
2023-04-02T05:04:17.100Z,98692.64
2023-04-02T05:06:56.247Z,98691.41
2023-04-02T05:09:31.840Z,98692.23
2023-04-02T05:12:34.801Z,98691.11
2023-04-02T05:15:12.161Z,98694.73
2023-04-02T05:18:06.916Z,98694.76
2023-04-02T05:20:48.117Z,98693.67
2023-04-02T05:23:26.210Z,98698.77
2023-04-02T05:26:03.329Z,98699.54
2023-04-02T05:28:52.174Z,98700.64
2023-04-02T05:31:22.780Z,98699.50
2023-04-02T05:33:51.238Z,98702.66
2023-04-02T05:36:21.844Z,98701.36
2023-04-02T05:38:52.833Z,98701.63
2023-04-02T05:41:32.458Z,98704.77
2023-04-02T05:44:06.849Z,98704.33
2023-04-02T05:46:51.644Z,98706.20
2023-04-02T05:49:48.698Z,98709.35
2023-04-02T05:52:23.894Z,98706.95
2023-04-02T05:54:53.027Z,98708.77
2023-04-02T05:57:29.617Z,98711.24
2023-04-02T06:00:11.219Z,98713.07
2023-04-02T06:02:53.169Z,98712.66
2023-04-02T06:05:28.018Z,98719.86
2023-04-02T06:08:16.955Z,98718.50
2023-04-02T06:10:55.473Z,98723.24
2023-04-02T06:13:30.585Z,98722.98
2023-04-02T06:15:58.932Z,98724.86
2023-04-02T06:18:33.503Z,98722.95
2023-04-02T06:21:02.631Z,98722.50
2023-04-02T06:24:00.462Z,98724.37
2023-04-02T06:26:32.735Z,98724.86
2023-04-02T06:29:02.727Z,98732.96
2023-04-02T06:31:41.350Z,98732.48
2023-04-02T06:34:31.879Z,98732.96
2023-04-02T06:37:25.089Z,98735.36
2023-04-02T06:39:59.525Z,98740.17
2023-04-02T06:42:34.459Z,98742.55
2023-04-02T06:45:35.188Z,98741.83
2023-04-02T06:48:23.314Z,98745.28
2023-04-02T06:51:09.712Z,98747.54
2023-04-02T06:53:41.567Z,98746.06
2023-04-02T06:56:32.018Z,98751.91
2023-04-02T06:59:04.707Z,98751.94
2023-04-02T07:01:37.409Z,98749.85
2023-04-02T07:04:06.972Z,98751.37
2023-04-02T07:06:41.396Z,98754.95
2023-04-02T07:09:11.109Z,98756.95
2023-04-02T07:11:42.163Z,98758.84
2023-04-02T07:14:14.260Z,98760.13
2023-04-02T07:16:45.122Z,98762.89
2023-04-02T07:19:20.124Z,98766.95
2023-04-02T07:21:52.198Z,98767.77
2023-04-02T07:24:21.821Z,98770.96
2023-04-02T07:26:49.776Z,98772.44
2023-04-02T07:29:18.512Z,98778.27
2023-04-02T07:31:47.498Z,98774.77
2023-04-02T07:34:15.464Z,98778.11
2023-04-02T07:36:49.229Z,98776.75
2023-04-02T07:39:17.221Z,98776.79
2023-04-02T07:41:55.958Z,98775.58
2023-04-02T07:44:24.072Z,98771.31
2023-04-02T07:46:52.612Z,98775.56
2023-04-02T07:49:21.523Z,98775.44
2023-04-02T07:51:49.819Z,98777.42
2023-04-02T07:54:18.134Z,98777.89
2023-04-02T07:56:46.594Z,98777.93
2023-04-02T07:59:14.734Z,98781.88
2023-04-02T08:01:43.277Z,98782.61
2023-04-02T08:04:21.432Z,98782.48
2023-04-02T08:06:50.653Z,98781.13
2023-04-02T08:09:19.906Z,98784.77
2023-04-02T08:11:48.436Z,98784.92
2023-04-02T08:14:17.237Z,98783.77
2023-04-02T08:16:52.756Z,98789.10
2023-04-02T08:19:25.182Z,98790.25
2023-04-02T08:21:53.786Z,98789.27
2023-04-02T08:24:22.236Z,98787.27
2023-04-02T08:26:51.539Z,98786.29
2023-04-02T08:29:20.668Z,98785.74
2023-04-02T08:31:49.953Z,98792.31
2023-04-02T08:34:18.075Z,98791.65
2023-04-02T08:36:46.303Z,98796.48
2023-04-02T08:39:14.735Z,98795.25
2023-04-02T08:41:53.904Z,98796.44
2023-04-02T08:44:41.139Z,98801.88
2023-04-02T08:47:09.712Z,98800.73
2023-04-02T08:49:59.887Z,98801.43
2023-04-02T08:52:32.684Z,98805.40
2023-04-02T08:55:05.712Z,98804.34
2023-04-02T08:58:05.159Z,98805.39
2023-04-02T09:00:39.403Z,98807.88
2023-04-02T09:03:14.094Z,98810.61
2023-04-02T09:05:43.381Z,98812.70
2023-04-02T09:08:22.203Z,98815.88
2023-04-02T09:10:58.990Z,98810.80
2023-04-02T09:13:31.598Z,98811.32
2023-04-02T09:16:12.110Z,98814.61
2023-04-02T09:18:40.731Z,98814.76
2023-04-02T09:21:21.244Z,98819.49
2023-04-02T09:23:49.931Z,98817.27
2023-04-02T09:26:23.934Z,98818.54
2023-04-02T09:29:25.716Z,98820.88
2023-04-02T09:32:18.511Z,98818.52
2023-04-02T09:34:50.907Z,98826.00
2023-04-02T09:37:23.082Z,98821.69
2023-04-02T09:39:52.190Z,98829.11
2023-04-02T09:42:35.004Z,98828.97
2023-04-02T09:45:24.080Z,98829.44
2023-04-02T09:47:52.944Z,98833.33
2023-04-02T09:50:21.838Z,98833.05
2023-04-02T09:52:51.467Z,98837.06
2023-04-02T09:55:26.516Z,98834.04
2023-04-02T09:58:12.675Z,98836.30
2023-04-02T10:00:49.244Z,98842.45
2023-04-02T10:03:29.807Z,98844.55
2023-04-02T10:06:09.039Z,98843.23
2023-04-02T10:08:39.101Z,98844.06
2023-04-02T10:11:16.811Z,98845.31
2023-04-02T10:13:55.007Z,98846.02
2023-04-02T10:16:27.712Z,98848.77
2023-04-02T10:19:26.680Z,98848.27
2023-04-02T10:21:55.956Z,98846.30
2023-04-02T10:24:27.630Z,98847.69
2023-04-02T10:27:33.929Z,98849.56
2023-04-02T10:30:05.566Z,98852.35
2023-04-02T10:32:39.478Z,98855.46
2023-04-02T10:35:07.990Z,98858.45
2023-04-02T10:37:49.594Z,98859.29
2023-04-02T10:40:23.818Z,98866.59
2023-04-02T10:43:35.526Z,98868.80
2023-04-02T10:46:31.175Z,98870.61
2023-04-02T10:49:08.989Z,98874.00
2023-04-02T10:51:46.475Z,98879.08
2023-04-02T10:54:33.018Z,98877.45
2023-04-02T10:57:28.084Z,98878.24
2023-04-02T11:00:08.204Z,98878.91
2023-04-02T11:02:52.830Z,98879.12
2023-04-02T11:05:29.247Z,98877.41
2023-04-02T11:08:19.227Z,98878.23
2023-04-02T11:10:50.249Z,98873.38
2023-04-02T11:13:33.520Z,98875.34
2023-04-02T11:16:01.888Z,98874.94
2023-04-02T11:18:36.731Z,98877.52
2023-04-02T11:21:57.391Z,98877.76
2023-04-02T11:24:30.381Z,98879.80
2023-04-02T11:27:16.112Z,98881.84
2023-04-02T11:30:04.052Z,98884.23
2023-04-02T11:32:43.095Z,98887.36
2023-04-02T11:35:36.839Z,98883.86
2023-04-02T11:38:11.795Z,98886.45
2023-04-02T11:40:45.382Z,98890.35
2023-04-02T11:43:33.036Z,98891.84
2023-04-02T11:46:02.059Z,98892.95
2023-04-02T11:48:36.304Z,98895.89
2023-04-02T11:51:21.251Z,98895.11
2023-04-02T11:53:58.583Z,98892.15
2023-04-02T11:56:37.810Z,98890.74
2023-04-02T11:59:24.389Z,98891.83
2023-04-02T12:02:13.443Z,98890.45
2023-04-02T12:04:53.967Z,98890.94
2023-04-02T12:07:35.263Z,98890.34
2023-04-02T12:10:24.607Z,98891.48
2023-04-02T12:12:57.599Z,98891.80
2023-04-02T12:15:46.302Z,98893.52
2023-04-02T12:18:14.685Z,98893.95
2023-04-02T12:20:47.849Z,98895.89
2023-04-02T12:23:18.957Z,98896.36
2023-04-02T12:25:54.954Z,98898.23
2023-04-02T12:28:23.620Z,98899.01
2023-04-02T12:30:52.169Z,98900.19
2023-04-02T12:33:34.602Z,98903.05
2023-04-02T12:36:07.355Z,98900.27
2023-04-02T12:38:45.846Z,98900.87
2023-04-02T12:41:34.898Z,98901.44
2023-04-02T12:44:05.145Z,98900.82
2023-04-02T12:46:34.793Z,98902.17
2023-04-02T12:49:08.656Z,98905.80
2023-04-02T12:51:37.073Z,98904.23
2023-04-02T12:54:05.571Z,98900.41
2023-04-02T12:56:34.899Z,98903.55
2023-04-02T12:59:03.061Z,98901.54
2023-04-02T13:01:32.684Z,98903.20
2023-04-02T13:04:04.415Z,98902.77
2023-04-02T13:06:34.051Z,98903.77
2023-04-02T13:09:05.031Z,98905.02
2023-04-02T13:11:40.344Z,98903.66
2023-04-02T13:14:17.394Z,98904.34
2023-04-02T13:16:45.975Z,98900.89
2023-04-02T13:19:32.404Z,98903.94
2023-04-02T13:22:01.813Z,98904.48
2023-04-02T13:24:31.724Z,98901.86
2023-04-02T13:27:01.665Z,98906.30
2023-04-02T13:29:30.736Z,98905.39
2023-04-02T13:32:01.176Z,98910.23
2023-04-02T13:34:30.358Z,98907.23
2023-04-02T13:37:03.482Z,98908.77
2023-04-02T13:39:35.789Z,98908.09
2023-04-02T13:42:04.476Z,98907.91
2023-04-02T13:44:34.142Z,98905.70
2023-04-02T13:47:03.389Z,98905.73
2023-04-02T13:49:33.445Z,98907.43
2023-04-02T13:52:05.875Z,98909.39
2023-04-02T13:54:50.095Z,98913.80
2023-04-02T13:57:18.723Z,98912.86
2023-04-02T13:59:46.826Z,98912.71
2023-04-02T14:02:20.845Z,98912.35
2023-04-02T14:04:52.691Z,98909.71
2023-04-02T14:07:27.815Z,98912.41
2023-04-02T14:10:24.623Z,98913.51
2023-04-02T14:12:59.384Z,98913.07
2023-04-02T14:15:46.631Z,98913.45
2023-04-02T14:18:42.116Z,98912.86
2023-04-02T14:22:05.652Z,98914.30
2023-04-02T14:24:42.733Z,98914.42
2023-04-02T14:27:32.983Z,98918.67
2023-04-02T14:30:09.249Z,98919.90
2023-04-02T14:32:56.813Z,98916.41
2023-04-02T14:35:36.529Z,98919.52
2023-04-02T14:38:25.305Z,98920.90
2023-04-02T14:41:20.073Z,98922.61
2023-04-02T14:43:55.248Z,98918.53
2023-04-02T14:46:27.469Z,98922.42
2023-04-02T14:49:04.271Z,98924.10
2023-04-02T14:51:47.744Z,98924.54
2023-04-02T14:54:35.347Z,98925.52
2023-04-02T14:57:11.463Z,98926.82
2023-04-02T14:59:46.710Z,98928.35
2023-04-02T15:02:49.915Z,98927.60
2023-04-02T15:05:24.674Z,98928.48
2023-04-02T15:07:58.522Z,98929.28
2023-04-02T15:10:29.377Z,98934.58
2023-04-02T15:12:58.613Z,98932.41
2023-04-02T15:15:45.110Z,98937.00
2023-04-02T15:18:17.076Z,98934.45
2023-04-02T15:21:02.491Z,98936.33
2023-04-02T15:24:02.726Z,98941.59
2023-04-02T15:26:41.669Z,98939.44
2023-04-02T15:29:29.760Z,98944.61
2023-04-02T15:32:05.804Z,98943.01
2023-04-02T15:34:45.107Z,98944.11
2023-04-02T15:38:22.017Z,98946.02
2023-04-02T15:40:54.007Z,98946.65
2023-04-02T15:43:54.580Z,98946.05
2023-04-02T15:46:30.030Z,98946.30
2023-04-02T15:48:59.688Z,98948.47
2023-04-02T15:51:58.288Z,98950.37
2023-04-02T15:54:52.032Z,98950.92
2023-04-02T15:57:27.418Z,98955.38
2023-04-02T16:00:34.168Z,98957.52
2023-04-02T16:03:23.020Z,98956.09
2023-04-02T16:06:12.384Z,98960.70
2023-04-02T16:08:58.084Z,98956.90
2023-04-02T16:11:27.414Z,98964.05
2023-04-02T16:14:15.809Z,98960.84
2023-04-02T16:16:44.039Z,98959.70
2023-04-02T16:19:32.963Z,98958.33
2023-04-02T16:22:22.537Z,98960.09
2023-04-02T16:25:02.219Z,98958.98
2023-04-02T16:27:40.818Z,98958.35
2023-04-02T16:30:28.459Z,98960.34
2023-04-02T16:33:20.190Z,98957.80
2023-04-02T16:36:10.724Z,98965.17
2023-04-02T16:39:07.262Z,98964.34
2023-04-02T16:41:47.972Z,98968.71
2023-04-02T16:44:28.059Z,98967.54
2023-04-02T16:47:43.305Z,98968.59
2023-04-02T16:50:34.155Z,98971.19
2023-04-02T16:53:25.077Z,98969.42
2023-04-02T16:56:21.365Z,98968.10
2023-04-02T16:59:12.868Z,98970.25
2023-04-02T17:02:12.676Z,98968.83
2023-04-02T17:04:58.718Z,98974.98
2023-04-02T17:07:28.543Z,98974.91
2023-04-02T17:10:51.176Z,98978.70
2023-04-02T17:13:18.169Z,98979.27
2023-04-02T17:15:50.704Z,98980.52
2023-04-02T17:18:35.475Z,98982.44
2023-04-02T17:21:06.905Z,98985.83
2023-04-02T17:24:00.967Z,98982.95
2023-04-02T17:26:28.942Z,98987.96
2023-04-02T17:28:57.620Z,98990.30
2023-04-02T17:31:27.113Z,98989.20
2023-04-02T17:33:54.089Z,98994.96
2023-04-02T17:36:32.164Z,98993.02
2023-04-02T17:39:29.142Z,98994.89
2023-04-02T17:42:17.691Z,98996.69
2023-04-02T17:44:57.133Z,98995.30
2023-04-02T17:47:36.298Z,99000.59
2023-04-02T17:50:05.962Z,99002.48
2023-04-02T17:52:47.151Z,98999.10
2023-04-02T17:55:34.338Z,99003.00
2023-04-02T17:58:09.203Z,99005.96
2023-04-02T18:00:58.390Z,99007.94
2023-04-02T18:03:36.537Z,99009.67
2023-04-02T18:06:06.293Z,99008.98
2023-04-02T18:09:25.114Z,99014.23
2023-04-02T18:12:03.663Z,99014.83
2023-04-02T18:14:58.642Z,99019.50
2023-04-02T18:18:06.719Z,99011.29
2023-04-02T18:21:06.578Z,99012.83
2023-04-02T18:23:46.713Z,99015.84
2023-04-02T18:26:35.643Z,99014.64
2023-04-02T18:29:02.426Z,99015.86
2023-04-02T18:31:41.294Z,99019.73
2023-04-02T18:34:14.122Z,99018.66
2023-04-02T18:36:51.604Z,99022.41
2023-04-02T18:40:00.432Z,99024.82
2023-04-02T18:42:52.684Z,99023.48
2023-04-02T18:45:49.030Z,99021.74
2023-04-02T18:48:30.709Z,99022.84
2023-04-02T18:50:58.703Z,99025.34
2023-04-02T18:53:25.743Z,99025.91
2023-04-02T18:55:58.575Z,99027.13
2023-04-02T18:58:33.883Z,99028.98
2023-04-02T19:01:05.503Z,99027.35
2023-04-02T19:03:39.646Z,99028.47
2023-04-02T19:06:14.991Z,99028.19
2023-04-02T19:08:47.159Z,99026.91
2023-04-02T19:11:28.058Z,99025.05
2023-04-02T19:14:07.017Z,99027.16
2023-04-02T19:16:40.672Z,99027.77
2023-04-02T19:19:16.471Z,99028.20
2023-04-02T19:22:12.611Z,99027.39
2023-04-02T19:25:18.087Z,99027.92
2023-04-02T19:27:53.101Z,99027.85
2023-04-02T19:30:39.029Z,99029.45
2023-04-02T19:33:25.293Z,99032.38
2023-04-02T19:36:17.899Z,99032.55
2023-04-02T19:38:55.575Z,99036.64
2023-04-02T19:41:35.025Z,99034.86
2023-04-02T19:44:01.957Z,99038.93
2023-04-02T19:46:28.883Z,99035.23
2023-04-02T19:49:07.133Z,99037.91
2023-04-02T19:51:34.002Z,99037.15
2023-04-02T19:54:01.770Z,99038.50
2023-04-02T19:56:28.624Z,99038.75
2023-04-02T19:58:56.694Z,99035.20
2023-04-02T20:01:23.888Z,99035.46
2023-04-02T20:03:51.103Z,99036.67
2023-04-02T20:06:20.878Z,99038.77
2023-04-02T20:08:49.761Z,99035.03
2023-04-02T20:11:17.063Z,99036.68
2023-04-02T20:13:53.663Z,99040.71
2023-04-02T20:16:21.653Z,99037.20
2023-04-02T20:18:48.856Z,99037.42
2023-04-02T20:21:18.970Z,99036.84
2023-04-02T20:23:47.189Z,99035.81
2023-04-02T20:26:14.146Z,99036.17
2023-04-02T20:28:43.046Z,99036.11
2023-04-02T20:31:11.558Z,99033.83
2023-04-02T20:33:39.296Z,99037.61
2023-04-02T20:36:08.875Z,99035.29
2023-04-02T20:38:36.999Z,99035.79
2023-04-02T20:41:04.848Z,99038.93
2023-04-02T20:43:32.630Z,99039.52
2023-04-02T20:46:01.162Z,99039.75
2023-04-02T20:48:30.394Z,99042.16
2023-04-02T20:50:59.967Z,99039.21
2023-04-02T20:53:28.979Z,99039.85
2023-04-02T20:56:13.240Z,99043.02
2023-04-02T20:58:40.360Z,99044.52
2023-04-02T21:01:07.739Z,99044.02
2023-04-02T21:03:39.043Z,99043.15
2023-04-02T21:06:13.357Z,99045.30
2023-04-02T21:08:40.287Z,99045.77
2023-04-02T21:11:16.276Z,99043.70
2023-04-02T21:13:44.584Z,99043.42
2023-04-02T21:16:27.574Z,99037.34
2023-04-02T21:18:57.715Z,99041.40
2023-04-02T21:21:24.452Z,99042.20
2023-04-02T21:23:58.759Z,99043.66
2023-04-02T21:26:26.522Z,99039.16
2023-04-02T21:28:54.685Z,99040.41
2023-04-02T21:31:23.506Z,99044.87
2023-04-02T21:33:52.644Z,99040.80
2023-04-02T21:36:21.887Z,99040.18
2023-04-02T21:38:53.220Z,99041.48
2023-04-02T21:41:22.214Z,99044.55
2023-04-02T21:43:49.622Z,99042.92
2023-04-02T21:46:21.361Z,99043.48
2023-04-02T21:48:49.090Z,99039.02
2023-04-02T21:51:21.385Z,99038.96
2023-04-02T21:53:50.530Z,99038.98
2023-04-02T21:56:18.947Z,99038.00
2023-04-02T21:58:46.243Z,99038.60
2023-04-02T22:01:23.837Z,99040.84
2023-04-02T22:03:56.447Z,99034.96
2023-04-02T22:06:24.864Z,99035.49
2023-04-02T22:08:56.580Z,99036.02
2023-04-02T22:11:26.108Z,99035.98
2023-04-02T22:13:53.428Z,99035.39
2023-04-02T22:16:25.265Z,99034.30
2023-04-02T22:18:53.214Z,99037.88
2023-04-02T22:21:20.876Z,99036.80
2023-04-02T22:23:50.961Z,99038.66
2023-04-02T22:26:19.226Z,99040.16
2023-04-02T22:28:45.959Z,99039.62
2023-04-02T22:31:17.734Z,99041.73
2023-04-02T22:33:45.502Z,99039.62
2023-04-02T22:36:12.772Z,99040.84
2023-04-02T22:38:40.646Z,99042.23
2023-04-02T22:41:15.501Z,99041.08
2023-04-02T22:43:43.454Z,99039.14
2023-04-02T22:46:11.473Z,99038.52
2023-04-02T22:48:41.000Z,99038.25
2023-04-02T22:51:08.864Z,99036.00
2023-04-02T22:53:36.025Z,99034.77
2023-04-02T22:56:05.932Z,99037.61
2023-04-02T22:58:33.647Z,99034.90
2023-04-02T23:01:09.068Z,99034.23
2023-04-02T23:03:37.269Z,99035.20
2023-04-02T23:06:06.730Z,99032.42
2023-04-02T23:08:34.279Z,99031.11
2023-04-02T23:11:09.393Z,99032.56
2023-04-02T23:13:38.650Z,99026.16
2023-04-02T23:16:07.669Z,99029.13
2023-04-02T23:18:36.803Z,99027.48
2023-04-02T23:21:04.164Z,99024.58
2023-04-02T23:23:31.042Z,99025.08
2023-04-02T23:26:18.043Z,99020.46
2023-04-02T23:28:45.109Z,99017.76
2023-04-02T23:31:15.204Z,99019.46
2023-04-02T23:33:42.734Z,99017.20
2023-04-02T23:36:13.000Z,99014.75
2023-04-02T23:38:44.612Z,99011.86
2023-04-02T23:41:18.578Z,99011.17
2023-04-02T23:43:46.307Z,99008.49
2023-04-02T23:46:13.950Z,99010.11
2023-04-02T23:48:40.810Z,99009.46
2023-04-02T23:51:07.602Z,99010.12
2023-04-02T23:53:34.598Z,99009.95
2023-04-02T23:56:03.723Z,99005.83
2023-04-02T23:58:30.558Z,99010.69
